Time;durP1;ratioP1;P1;durP2;ratioP2;P2;SDS_P1;SDS_P2;PMS_P1;PMS_P2;Temp;Humidity;BMP_temperature;BMP_pressure;BME280_temperature;BME280_humidity;BME280_pressure;Samples;Min_cycle;Max_cycle;Signal;HPM_P1;HPM_P2
2022/06/19 00:01:26;;;;;;;10.27;5.00;;;22.80;63.30;;;;;;5052016;28;20193;-81
2022/06/19 00:03:56;;;;;;;11.43;5.30;;;22.80;63.50;;;;;;5039477;28;20714;-81
2022/06/19 00:06:23;;;;;;;6.13;4.70;;;22.70;63.70;;;;;;5054023;28;20646;-81
2022/06/19 00:08:52;;;;;;;6.57;5.07;;;22.70;63.90;;;;;;5056212;28;20221;-81
2022/06/19 00:11:22;;;;;;;7.97;4.90;;;22.70;64.00;;;;;;5046226;28;20205;-80
2022/06/19 00:13:49;;;;;;;6.40;4.50;;;22.60;64.20;;;;;;5052764;28;20212;-81
2022/06/19 00:16:17;;;;;;;6.57;4.57;;;22.60;64.50;;;;;;5038586;28;20230;-81
2022/06/19 00:18:44;;;;;;;6.17;4.47;;;22.50;64.60;;;;;;5056423;28;20202;-81
2022/06/19 00:21:15;;;;;;;5.83;4.60;;;22.50;64.70;;;;;;5056323;28;20618;-81
2022/06/19 00:23:45;;;;;;;5.00;4.30;;;22.50;65.20;;;;;;5052338;28;20530;-81
2022/06/19 00:26:14;;;;;;;6.27;5.23;;;22.50;65.80;;;;;;5047881;28;20206;-80
2022/06/19 00:28:41;;;;;;;5.73;4.53;;;22.40;65.70;;;;;;5053773;28;20552;-81
2022/06/19 00:31:08;;;;;;;12.37;5.17;;;22.40;65.60;;;;;;5053273;28;20301;-80
2022/06/19 00:33:36;;;;;;;9.30;4.80;;;22.40;65.90;;;;;;5053987;28;20209;-80
2022/06/19 00:36:04;;;;;;;7.20;4.30;;;22.40;66.30;;;;;;5054501;28;20229;-81
2022/06/19 00:38:32;;;;;;;4.77;4.27;;;22.40;66.40;;;;;;5053870;28;20213;-80
2022/06/19 00:41:01;;;;;;;7.87;4.67;;;22.40;66.40;;;;;;5049261;28;20700;-81
2022/06/19 00:43:29;;;;;;;9.17;4.60;;;22.30;66.30;;;;;;5053312;28;20249;-80
2022/06/19 00:46:24;;;;;;;6.97;4.20;;;22.30;66.60;;;;;;5006337;28;20207;-80
2022/06/19 00:48:52;;;;;;;6.13;4.77;;;22.30;66.70;;;;;;5052072;28;20317;-81
2022/06/19 00:51:19;;;;;;;4.83;3.93;;;22.30;66.80;;;;;;5054209;28;20670;-80
2022/06/19 00:53:48;;;;;;;7.53;4.73;;;22.30;67.00;;;;;;5034188;28;20220;-81
2022/06/19 00:56:18;;;;;;;6.73;4.70;;;22.20;67.00;;;;;;5019571;28;20209;-81
2022/06/19 00:58:48;;;;;;;6.70;4.33;;;22.20;67.10;;;;;;5053091;28;20205;-82
2022/06/19 01:01:19;;;;;;;6.20;4.77;;;22.20;67.20;;;;;;5028146;28;20237;-80
2022/06/19 01:04:09;;;;;;;5.13;4.30;;;22.20;67.50;;;;;;5037322;28;20661;-80
2022/06/19 01:06:37;;;;;;;8.50;4.93;;;22.10;67.80;;;;;;5048457;28;20205;-80
2022/06/19 01:09:04;;;;;;;6.07;5.33;;;22.10;67.80;;;;;;5037777;28;20217;-80
2022/06/19 01:11:37;;;;;;;11.77;4.20;;;22.10;68.00;;;;;;5036615;28;20207;-80
2022/06/19 01:14:16;;;;;;;5.87;5.13;;;22.00;68.00;;;;;;5028941;28;20288;-80
2022/06/19 01:16:44;;;;;;;12.63;5.37;;;22.00;68.00;;;;;;5037343;28;20255;-80
2022/06/19 01:19:16;;;;;;;10.00;5.90;;;21.90;68.00;;;;;;5035481;28;20699;-81
2022/06/19 01:22:11;;;;;;;8.07;5.90;;;21.90;68.10;;;;;;5047208;28;20731;-80
2022/06/19 01:24:53;;;;;;;6.40;5.40;;;21.90;68.20;;;;;;5037958;28;20221;-80
2022/06/19 01:30:08;;;;;;;11.47;6.00;;;21.80;68.30;;;;;;5038688;28;20638;-80
2022/06/19 01:32:37;;;;;;;7.10;5.53;;;21.80;68.40;;;;;;5015484;28;20260;-80
2022/06/19 01:35:07;;;;;;;14.70;5.50;;;21.80;68.30;;;;;;5037769;28;20194;-80
2022/06/19 01:37:37;;;;;;;7.33;5.43;;;21.80;68.50;;;;;;5035995;28;20209;-81
2022/06/19 01:40:15;;;;;;;10.40;5.60;;;21.70;68.70;;;;;;5033458;28;20706;-80
2022/06/19 01:42:42;;;;;;;7.87;5.17;;;21.70;69.00;;;;;;5020190;28;20202;-80
2022/06/19 01:45:10;;;;;;;13.43;5.60;;;21.60;69.10;;;;;;5033528;28;20250;-80
2022/06/19 01:47:38;;;;;;;8.10;5.77;;;21.60;69.40;;;;;;5031422;28;20666;-80
2022/06/19 01:50:08;;;;;;;6.97;6.27;;;21.50;69.50;;;;;;5049727;28;20207;-80
2022/06/19 01:52:35;;;;;;;7.90;6.47;;;21.50;69.70;;;;;;5054696;28;20256;-80
2022/06/19 01:55:15;;;;;;;8.30;6.00;;;21.40;69.80;;;;;;5037126;28;20310;-80
2022/06/19 01:57:48;;;;;;;6.83;6.33;;;21.40;70.00;;;;;;5051775;28;20224;-81
2022/06/19 02:00:22;;;;;;;9.77;6.37;;;21.30;69.90;;;;;;5018152;28;20206;-81
2022/06/19 02:03:16;;;;;;;15.73;6.53;;;21.30;69.90;;;;;;5052233;28;20204;-80
2022/06/19 02:05:44;;;;;;;8.57;6.40;;;21.30;70.10;;;;;;5035972;28;20188;-82
2022/06/19 02:08:14;;;;;;;12.40;6.10;;;21.30;70.40;;;;;;5050985;28;20233;-82
2022/06/19 02:10:44;;;;;;;6.83;6.17;;;21.20;70.60;;;;;;5058834;28;20582;-82
2022/06/19 02:13:15;;;;;;;8.07;5.70;;;21.20;70.60;;;;;;5057759;28;20208;-82
2022/06/19 02:15:45;;;;;;;8.80;6.00;;;21.20;70.50;;;;;;5030920;28;20232;-82
2022/06/19 02:18:31;;;;;;;9.00;5.33;;;21.30;70.40;;;;;;5050728;28;20231;-82
2022/06/19 02:20:58;;;;;;;7.33;6.10;;;21.30;70.50;;;;;;5053224;28;20215;-82
2022/06/19 02:23:32;;;;;;;8.73;6.23;;;21.20;70.50;;;;;;5061426;28;20201;-80
2022/06/19 02:26:01;;;;;;;7.57;6.17;;;21.20;70.60;;;;;;5058566;28;20201;-80
2022/06/19 02:28:28;;;;;;;10.27;5.90;;;21.20;70.80;;;;;;5037999;28;20214;-80
2022/06/19 02:30:58;;;;;;;9.10;6.03;;;21.20;71.10;;;;;;5057715;28;20209;-81
2022/06/19 02:33:30;;;;;;;15.10;5.67;;;21.20;71.30;;;;;;5041124;28;20208;-80
2022/06/19 02:35:57;;;;;;;6.37;5.20;;;21.10;71.30;;;;;;5058146;28;20218;-80
2022/06/19 02:38:25;;;;;;;9.23;5.80;;;21.10;71.50;;;;;;5052884;28;20197;-80
2022/06/19 02:41:09;;;;;;;8.50;6.07;;;21.10;71.50;;;;;;5051334;28;20188;-80
2022/06/19 02:43:37;;;;;;;9.60;6.30;;;21.10;71.60;;;;;;5060835;28;20232;-81
2022/06/19 02:46:08;;;;;;;9.40;6.20;;;21.10;71.60;;;;;;5075874;28;20263;-81
2022/06/19 02:48:36;;;;;;;6.63;6.00;;;21.10;71.70;;;;;;5060500;28;20229;-80
2022/06/19 02:51:07;;;;;;;7.53;5.90;;;21.10;71.60;;;;;;5043995;28;20212;-81
2022/06/19 02:53:35;;;;;;;7.67;6.53;;;21.10;71.70;;;;;;5076347;28;20197;-81
2022/06/19 02:56:02;;;;;;;6.87;6.17;;;21.00;71.70;;;;;;5078165;28;20274;-81
2022/06/19 02:58:29;;;;;;;14.90;5.90;;;21.00;72.40;;;;;;5057887;28;20428;-80
2022/06/19 03:00:57;;;;;;;8.93;6.17;;;21.00;72.00;;;;;;5043563;28;20212;-80
2022/06/19 03:03:42;;;;;;;8.03;5.97;;;21.00;72.30;;;;;;5077028;28;20531;-81
2022/06/19 03:06:11;;;;;;;6.23;5.53;;;21.00;72.50;;;;;;5058796;28;20231;-80
2022/06/19 03:08:38;;;;;;;6.10;5.50;;;20.90;72.40;;;;;;5055120;28;20233;-80
2022/06/19 03:11:06;;;;;;;9.23;6.17;;;20.90;72.60;;;;;;5076449;28;20192;-80
2022/06/19 03:13:34;;;;;;;8.67;6.33;;;20.90;72.60;;;;;;5075696;28;20307;-81
2022/06/19 03:16:07;;;;;;;9.87;6.83;;;20.80;72.40;;;;;;5059357;28;20627;-80
2022/06/19 03:18:39;;;;;;;8.07;6.57;;;20.80;72.40;;;;;;5055207;28;20247;-81
2022/06/19 03:21:06;;;;;;;8.93;6.60;;;20.80;72.60;;;;;;5076626;28;20208;-80
2022/06/19 03:23:34;;;;;;;9.43;6.93;;;20.70;72.60;;;;;;5057653;28;20529;-81
2022/06/19 03:26:01;;;;;;;10.07;6.93;;;20.70;72.70;;;;;;5060655;28;20205;-81
2022/06/19 03:28:31;;;;;;;7.90;6.33;;;20.70;72.90;;;;;;5076895;28;20217;-80
2022/06/19 03:31:01;;;;;;;7.30;6.27;;;20.70;73.00;;;;;;5046801;28;20210;-80
2022/06/19 03:33:29;;;;;;;9.10;5.73;;;20.70;73.00;;;;;;5043857;28;20212;-80
2022/06/19 03:35:56;;;;;;;13.17;5.90;;;20.70;73.10;;;;;;5040914;28;20209;-80
2022/06/19 03:38:24;;;;;;;7.07;5.97;;;20.70;73.20;;;;;;5075076;28;20208;-80
2022/06/19 03:40:51;;;;;;;6.83;6.33;;;20.70;73.40;;;;;;5059159;28;20223;-80
2022/06/19 03:43:19;;;;;;;8.87;6.30;;;20.70;73.50;;;;;;5055240;28;20205;-80
2022/06/19 03:45:46;;;;;;;8.67;5.43;;;20.70;73.50;;;;;;5073890;28;20641;-80
2022/06/19 03:48:13;;;;;;;6.03;5.43;;;20.70;73.60;;;;;;5069515;28;20368;-80
2022/06/19 03:50:41;;;;;;;7.80;5.77;;;20.70;73.60;;;;;;5074642;28;20200;-80
2022/06/19 03:53:09;;;;;;;6.77;5.57;;;20.70;73.40;;;;;;5051837;28;20203;-80
2022/06/19 03:55:36;;;;;;;7.00;6.30;;;20.70;73.40;;;;;;5074827;28;20200;-80
2022/06/19 03:58:04;;;;;;;8.07;5.70;;;20.70;73.60;;;;;;5070335;28;20222;-80
2022/06/19 04:00:31;;;;;;;6.93;6.23;;;20.70;74.00;;;;;;5076166;28;20213;-80
2022/06/19 04:02:58;;;;;;;8.27;6.10;;;20.70;74.40;;;;;;5076264;28;20585;-80
2022/06/19 04:05:25;;;;;;;6.77;6.03;;;20.70;74.60;;;;;;5035129;28;20231;-80
2022/06/19 04:07:53;;;;;;;9.40;6.67;;;20.70;74.60;;;;;;5059304;28;20565;-80
2022/06/19 04:10:21;;;;;;;8.57;7.20;;;20.70;74.60;;;;;;5075268;28;20205;-80
2022/06/19 04:12:53;;;;;;;15.93;7.30;;;20.70;74.60;;;;;;5054699;28;20229;-80
2022/06/19 04:15:21;;;;;;;11.23;6.40;;;20.70;74.70;;;;;;5072625;28;20250;-80
2022/06/19 04:17:48;;;;;;;7.33;6.63;;;20.70;74.70;;;;;;5062401;28;20545;-80
2022/06/19 04:20:16;;;;;;;7.10;6.47;;;20.80;74.70;;;;;;5058149;28;20617;-80
2022/06/19 04:22:43;;;;;;;11.90;7.00;;;20.80;74.60;;;;;;5041327;28;20197;-80
2022/06/19 04:25:13;;;;;;;8.83;6.53;;;20.90;74.50;;;;;;5058425;28;20871;-80
2022/06/19 04:27:44;;;;;;;7.27;6.20;;;21.00;74.30;;;;;;5058160;28;20704;-80
2022/06/19 04:30:13;;;;;;;6.83;6.20;;;21.00;74.20;;;;;;5057126;28;20200;-80
2022/06/19 04:32:41;;;;;;;5.97;5.47;;;21.10;74.50;;;;;;5075119;28;20288;-80
2022/06/19 04:35:08;;;;;;;9.23;6.37;;;21.10;74.70;;;;;;5058250;28;20629;-80
2022/06/19 04:37:36;;;;;;;6.97;5.73;;;21.20;74.90;;;;;;5069190;28;20214;-80
2022/06/19 04:40:04;;;;;;;7.90;6.10;;;21.30;74.80;;;;;;5058121;28;20213;-80
2022/06/19 04:42:32;;;;;;;9.03;5.30;;;21.40;74.60;;;;;;5061332;28;20209;-80
2022/06/19 04:44:59;;;;;;;6.07;5.47;;;21.50;74.50;;;;;;5057434;28;20232;-80
2022/06/19 04:47:26;;;;;;;6.27;5.27;;;21.60;74.30;;;;;;5061452;28;20225;-80
2022/06/19 04:49:54;;;;;;;6.77;4.80;;;21.70;74.00;;;;;;5058215;28;20235;-80
2022/06/19 04:52:21;;;;;;;5.37;4.83;;;21.90;73.70;;;;;;5058032;28;20232;-80
2022/06/19 04:54:48;;;;;;;4.97;4.10;;;22.00;73.30;;;;;;5058162;28;20205;-80
2022/06/19 04:57:16;;;;;;;6.90;5.13;;;22.10;73.00;;;;;;5057682;28;20193;-81
2022/06/19 04:59:44;;;;;;;5.27;4.43;;;22.20;72.60;;;;;;5038380;28;20269;-81
2022/06/19 05:02:14;;;;;;;6.13;4.73;;;22.40;72.00;;;;;;5064165;28;20434;-80
2022/06/19 05:04:41;;;;;;;5.00;4.47;;;22.50;71.60;;;;;;5056559;28;20213;-81
2022/06/19 05:07:08;;;;;;;4.80;4.10;;;22.60;71.80;;;;;;5054018;28;20573;-80
2022/06/19 05:09:36;;;;;;;4.37;3.97;;;22.70;70.30;;;;;;5075297;28;20210;-81
2022/06/19 05:12:03;;;;;;;6.80;3.83;;;22.90;69.90;;;;;;5073056;28;20243;-80
2022/06/19 05:14:30;;;;;;;5.40;3.60;;;23.10;69.60;;;;;;5057860;28;20198;-80
2022/06/19 05:16:58;;;;;;;4.47;3.43;;;23.30;69.10;;;;;;5058272;28;20589;-80
2022/06/19 05:19:26;;;;;;;4.37;3.97;;;23.50;68.00;;;;;;5058174;28;20205;-80
2022/06/19 05:21:53;;;;;;;4.67;3.60;;;23.80;67.30;;;;;;5058196;28;20209;-80
2022/06/19 05:24:21;;;;;;;55.00;47.13;;;24.00;66.90;;;;;;5056772;28;21092;-81
2022/06/19 05:26:50;;;;;;;36.10;29.73;;;24.30;66.80;;;;;;5069496;28;20576;-81
2022/06/19 05:29:20;;;;;;;98.07;64.17;;;24.50;66.70;;;;;;5058111;28;20218;-80
2022/06/19 05:31:48;;;;;;;47.47;37.73;;;24.60;65.70;;;;;;5036486;28;20305;-80
2022/06/19 05:34:15;;;;;;;9.97;8.10;;;24.80;64.90;;;;;;5057991;28;20236;-81
2022/06/19 05:36:43;;;;;;;13.30;3.90;;;24.90;64.40;;;;;;5057664;28;20657;-81
2022/06/19 05:39:11;;;;;;;6.23;3.50;;;25.00;64.10;;;;;;5075401;28;20216;-81
2022/06/19 05:41:40;;;;;;;6.73;3.50;;;25.10;63.30;;;;;;5074281;28;20197;-81
2022/06/19 05:44:10;;;;;;;11.40;3.37;;;25.20;62.20;;;;;;5079509;28;20332;-81
2022/06/19 05:46:37;;;;;;;14.47;4.23;;;25.20;62.10;;;;;;5071089;28;20204;-81
2022/06/19 05:49:05;;;;;;;6.47;3.63;;;25.40;62.20;;;;;;5067037;28;20235;-81
2022/06/19 05:51:32;;;;;;;5.23;3.00;;;25.50;60.70;;;;;;5050418;28;20190;-81
2022/06/19 05:53:59;;;;;;;6.40;3.83;;;25.60;60.50;;;;;;5067016;28;20198;-81
2022/06/19 05:56:28;;;;;;;6.87;3.33;;;25.70;60.40;;;;;;5080546;28;20528;-81
2022/06/19 05:58:56;;;;;;;4.03;3.33;;;25.80;60.80;;;;;;5050184;28;20230;-81
2022/06/19 06:01:25;;;;;;;3.27;2.97;;;25.90;60.40;;;;;;5072482;28;20224;-81
2022/06/19 06:03:52;;;;;;;3.57;2.90;;;26.00;60.30;;;;;;5060665;28;20219;-81
2022/06/19 06:06:22;;;;;;;6.07;2.97;;;26.00;59.30;;;;;;5060852;28;20218;-81
2022/06/19 06:08:50;;;;;;;3.77;2.30;;;26.10;59.10;;;;;;5050342;28;20675;-81
2022/06/19 06:11:18;;;;;;;4.10;2.50;;;26.20;57.90;;;;;;5057875;28;20204;-81
2022/06/19 06:13:46;;;;;;;3.17;2.63;;;26.20;56.60;;;;;;5070775;28;20207;-80
2022/06/19 06:16:20;;;;;;;3.20;2.63;;;26.30;56.60;;;;;;5060554;28;20322;-81
2022/06/19 06:18:49;;;;;;;4.23;2.47;;;26.50;55.40;;;;;;5058090;28;20260;-81
2022/06/19 06:21:22;;;;;;;2.80;2.50;;;26.60;54.60;;;;;;5060723;28;20205;-81
2022/06/19 06:23:50;;;;;;;2.70;2.50;;;26.70;55.20;;;;;;5071260;28;20203;-81
2022/06/19 06:26:20;;;;;;;2.93;2.20;;;26.80;54.10;;;;;;5049154;28;20202;-80
2022/06/19 06:28:49;;;;;;;2.93;2.40;;;26.90;55.40;;;;;;5072386;28;20222;-80
2022/06/19 06:31:18;;;;;;;2.43;2.23;;;27.10;54.20;;;;;;5043725;28;20205;-81
2022/06/19 06:33:46;;;;;;;4.77;2.33;;;27.20;53.30;;;;;;5050508;28;20201;-80
2022/06/19 06:36:14;;;;;;;5.37;2.50;;;27.40;54.10;;;;;;5060814;28;20687;-81
2022/06/19 06:38:42;;;;;;;5.27;2.00;;;27.50;53.70;;;;;;5064839;28;20284;-81
2022/06/19 06:41:11;;;;;;;2.50;1.97;;;27.70;52.50;;;;;;5055387;28;20209;-81
2022/06/19 06:43:44;;;;;;;7.47;2.30;;;27.90;51.00;;;;;;5067229;28;20332;-80
2022/06/19 06:46:15;;;;;;;4.23;2.30;;;28.10;51.70;;;;;;5056159;28;20204;-81
2022/06/19 06:48:42;;;;;;;2.60;2.40;;;28.30;51.10;;;;;;5077369;28;20220;-81
2022/06/19 06:51:12;;;;;;;3.07;1.80;;;28.50;50.50;;;;;;5056797;28;20205;-81
2022/06/19 06:53:40;;;;;;;2.33;1.77;;;28.70;50.10;;;;;;5074636;28;20203;-81
2022/06/19 06:56:08;;;;;;;2.40;1.93;;;28.90;50.70;;;;;;5059933;28;20201;-80
2022/06/19 06:58:39;;;;;;;3.47;2.20;;;29.10;49.20;;;;;;5074181;28;20197;-80
2022/06/19 07:01:13;;;;;;;3.93;1.90;;;29.30;48.10;;;;;;5056913;28;20205;-81
2022/06/19 07:03:42;;;;;;;1.60;1.50;;;29.50;47.50;;;;;;5046253;28;20201;-81
2022/06/19 07:06:13;;;;;;;2.13;1.90;;;29.70;47.30;;;;;;5076418;28;20237;-83
2022/06/19 07:08:41;;;;;;;3.93;1.90;;;29.80;46.70;;;;;;5076191;28;20297;-82
2022/06/19 07:11:20;;;;;;;2.00;1.80;;;30.00;46.20;;;;;;5069278;28;20197;-81
2022/06/19 07:13:48;;;;;;;3.70;2.10;;;30.20;45.90;;;;;;5073540;28;20182;-82
2022/06/19 07:16:16;;;;;;;2.13;1.70;;;30.40;45.00;;;;;;5056372;28;20551;-83
2022/06/19 07:18:44;;;;;;;2.20;1.60;;;30.50;43.50;;;;;;5059150;28;20217;-82
2022/06/19 07:21:12;;;;;;;1.80;1.70;;;30.70;43.40;;;;;;5079212;28;20201;-81
2022/06/19 07:23:40;;;;;;;1.50;1.40;;;30.80;44.00;;;;;;5040299;28;20217;-82
2022/06/19 07:26:16;;;;;;;2.10;1.73;;;31.00;43.40;;;;;;5079655;28;20638;-82
2022/06/19 07:28:44;;;;;;;3.07;1.30;;;31.20;41.50;;;;;;5046897;28;20229;-82
2022/06/19 07:31:11;;;;;;;1.77;1.53;;;31.30;40.60;;;;;;5059770;28;20214;-83
2022/06/19 07:33:39;;;;;;;2.47;1.50;;;31.40;40.60;;;;;;5074348;28;21558;-82
2022/06/19 07:36:11;;;;;;;2.03;1.70;;;31.50;40.80;;;;;;5062712;28;20202;-82
2022/06/19 07:38:39;;;;;;;4.30;1.50;;;31.60;40.20;;;;;;5075199;28;20186;-82
2022/06/19 07:41:07;;;;;;;2.93;1.37;;;31.60;39.80;;;;;;5043551;28;20197;-82
2022/06/19 07:43:34;;;;;;;2.03;1.17;;;31.80;39.70;;;;;;5079044;28;20247;-82
2022/06/19 07:46:02;;;;;;;4.80;1.50;;;31.90;39.10;;;;;;5062728;28;20209;-82
2022/06/19 07:51:18;;;;;;;1.63;1.20;;;32.00;38.10;;;;;;5076495;28;20190;-82
2022/06/19 07:53:46;;;;;;;5.10;1.30;;;32.10;38.40;;;;;;5042575;28;20201;-83
2022/06/19 07:56:17;;;;;;;2.83;1.10;;;32.10;38.90;;;;;;5062753;28;20194;-82
2022/06/19 07:58:44;;;;;;;3.67;1.20;;;32.20;37.70;;;;;;5052496;28;20280;-82
2022/06/19 08:01:15;;;;;;;2.00;1.17;;;32.30;37.30;;;;;;5046926;28;20633;-83
2022/06/19 08:03:43;;;;;;;2.00;1.40;;;32.40;37.10;;;;;;5060882;28;20307;-82
2022/06/19 08:06:17;;;;;;;1.40;1.10;;;32.50;37.40;;;;;;5065810;28;20225;-81
2022/06/19 08:08:48;;;;;;;2.87;1.57;;;32.60;36.30;;;;;;5044816;28;20711;-82
2022/06/19 08:11:21;;;;;;;2.10;1.00;;;32.70;36.30;;;;;;5056399;28;20194;-83
2022/06/19 08:13:50;;;;;;;0.90;0.90;;;32.80;36.80;;;;;;5055916;28;20241;-82
2022/06/19 08:16:20;;;;;;;2.90;1.30;;;33.00;36.70;;;;;;5069458;28;20236;-84
2022/06/19 08:18:47;;;;;;;1.73;1.20;;;33.10;36.90;;;;;;5054322;28;20209;-83
2022/06/19 08:21:17;;;;;;;1.37;1.27;;;33.20;36.10;;;;;;5058685;28;20206;-82
2022/06/19 08:23:44;;;;;;;1.40;1.30;;;33.30;36.30;;;;;;5057978;28;20216;-83
2022/06/19 08:26:14;;;;;;;1.83;1.30;;;33.40;36.30;;;;;;5043051;28;20233;-84
2022/06/19 08:31:31;;;;;;;3.33;1.30;;;33.60;36.00;;;;;;5068108;28;20205;-83
2022/06/19 08:33:59;;;;;;;1.47;1.37;;;33.70;36.20;;;;;;5029562;28;20233;-83
2022/06/19 08:36:27;;;;;;;2.57;1.30;;;33.80;35.90;;;;;;5059442;28;20276;-82
2022/06/19 08:38:59;;;;;;;1.50;1.40;;;33.90;36.00;;;;;;5059760;28;20209;-82
2022/06/19 08:41:50;;;;;;;1.50;1.40;;;34.10;36.40;;;;;;5073859;28;20202;-82
2022/06/19 08:44:38;;;;;;;1.83;1.30;;;34.20;35.80;;;;;;5052027;28;20241;-82
2022/06/19 08:47:31;;;;;;;2.17;1.57;;;34.30;35.20;;;;;;5041079;28;20262;-82
2022/06/19 08:50:33;;;;;;;2.50;1.97;;;34.30;35.20;;;;;;5060498;28;20271;-85
2022/06/19 08:53:20;;;;;;;4.77;1.60;;;34.30;35.30;;;;;;5041867;28;20242;-81
2022/06/19 08:55:59;;;;;;;1.50;1.40;;;34.20;35.50;;;;;;5073035;28;20194;-83
2022/06/19 08:59:00;;;;;;;1.70;1.60;;;34.20;36.40;;;;;;5056256;28;20205;-82
2022/06/19 09:01:53;;;;;;;4.57;1.70;;;34.40;36.10;;;;;;5060208;28;20308;-81
2022/06/19 09:07:34;;;;;;;2.03;1.70;;;34.60;35.90;;;;;;5060793;28;20197;-82
2022/06/19 09:10:30;;;;;;;2.97;1.73;;;34.70;36.30;;;;;;5060673;28;20296;-83
2022/06/19 09:13:05;;;;;;;2.37;1.43;;;34.80;35.90;;;;;;5067459;28;20633;-81
2022/06/19 09:15:35;;;;;;;5.87;1.20;;;34.90;35.40;;;;;;5077923;28;20277;-82
2022/06/19 09:18:35;;;;;;;1.87;1.43;;;34.90;34.80;;;;;;5061759;28;20550;-82
2022/06/19 09:21:15;;;;;;;2.53;1.53;;;35.00;35.60;;;;;;5080858;28;20209;-82
2022/06/19 09:24:09;;;;;;;4.67;1.63;;;35.10;35.40;;;;;;5057565;28;20205;-83
2022/06/19 09:27:03;;;;;;;1.87;1.60;;;35.20;35.40;;;;;;5064520;28;20216;-81
2022/06/19 09:29:41;;;;;;;2.57;1.53;;;35.20;34.90;;;;;;5075095;28;20218;-82
2022/06/19 09:32:17;;;;;;;2.17;1.97;;;35.20;35.30;;;;;;5061159;28;20306;-82
2022/06/19 09:34:57;;;;;;;1.47;1.43;;;35.30;35.60;;;;;;5056930;28;20229;-82
2022/06/19 09:37:36;;;;;;;2.63;1.80;;;35.40;35.10;;;;;;5058061;28;20280;-82
2022/06/19 09:40:10;;;;;;;2.85;2.10;;;35.50;34.90;;;;;;5074316;28;20206;-82
2022/06/19 09:43:00;;;;;;;2.17;1.60;;;35.60;35.10;;;;;;5058570;28;20205;-83
2022/06/19 09:45:46;;;;;;;2.83;1.77;;;35.60;35.10;;;;;;5048120;28;20243;-83
2022/06/19 09:48:36;;;;;;;3.97;2.00;;;35.70;34.30;;;;;;5055043;28;20264;-82
2022/06/19 09:51:22;;;;;;;3.70;2.13;;;35.60;35.40;;;;;;5076739;28;20237;-81
2022/06/19 09:54:05;;;;;;;3.20;1.60;;;35.60;34.60;;;;;;5061564;28;20281;-81
2022/06/19 09:57:09;;;;;;;3.70;2.00;;;35.60;35.00;;;;;;5062065;28;20221;-85
2022/06/19 10:00:02;;;;;;;;;;;;;;;;;;;;;
2022/06/19 10:02:51;;;;;;;4.40;2.10;;;35.80;35.10;;;;;;5081645;28;20550;-84
2022/06/19 10:05:32;;;;;;;10.43;3.20;;;35.90;35.40;;;;;;5063645;28;20216;-81
2022/06/19 10:08:32;;;;;;;3.97;1.67;;;36.00;35.40;;;;;;5063465;28;20626;-83
2022/06/19 10:11:15;;;;;;;3.70;1.90;;;36.20;35.20;;;;;;5055640;28;20298;-83
2022/06/19 10:14:03;;;;;;;2.35;2.13;;;36.20;35.20;;;;;;5036146;28;20734;-85
2022/06/19 10:16:51;;;;;;;3.47;1.97;;;36.30;35.60;;;;;;5079956;28;20194;-83
2022/06/19 10:19:19;;;;;;;2.78;2.33;;;36.40;34.50;;;;;;5063808;28;20622;-83
2022/06/19 10:25:01;;;;;;;4.40;2.10;;;36.40;34.50;;;;;;5078967;28;20200;-83
2022/06/19 10:28:06;;;;;;;5.00;2.30;;;36.50;34.90;;;;;;5070184;28;20201;-83
2022/06/19 10:30:56;;;;;;;3.08;1.92;;;36.60;34.60;;;;;;5067626;28;20255;-83
2022/06/19 10:33:43;;;;;;;3.58;1.90;;;36.70;34.90;;;;;;5060507;28;20213;-84
2022/06/19 10:36:17;;;;;;;3.40;2.40;;;36.80;34.70;;;;;;5060170;28;20527;-82
2022/06/19 10:38:50;;;;;;;5.13;2.05;;;36.80;34.70;;;;;;5076479;28;20198;-82
2022/06/19 10:44:40;;;;;;;6.35;2.53;;;36.90;34.60;;;;;;5064208;28;20688;-81
2022/06/19 10:47:28;;;;;;;4.00;2.88;;;36.90;34.00;;;;;;5068652;28;20683;-83
2022/06/19 10:50:06;;;;;;;4.55;2.60;;;36.90;34.20;;;;;;5055474;28;20214;-84
2022/06/19 10:52:50;;;;;;;2.20;2.08;;;36.80;34.30;;;;;;5062097;28;20275;-84
2022/06/19 10:55:33;;;;;;;6.80;2.42;;;36.80;34.60;;;;;;5056890;28;20229;-83
2022/06/19 10:58:31;;;;;;;4.72;2.58;;;36.90;34.40;;;;;;5073349;28;20210;-84
2022/06/19 11:01:08;;;;;;;4.90;2.47;;;36.90;34.00;;;;;;5065487;28;20216;-84
2022/06/19 11:06:46;;;;;;;3.13;1.77;;;37.00;34.40;;;;;;5070146;28;20528;-82
2022/06/19 11:09:20;;;;;;;2.40;2.20;;;37.10;34.10;;;;;;5055532;28;20619;-81
2022/06/19 11:11:52;;;;;;;2.20;2.00;;;37.00;34.30;;;;;;5075714;28;20201;-83
2022/06/19 11:14:47;;;;;;;4.53;2.40;;;37.10;34.70;;;;;;5068069;28;20248;-83
2022/06/19 11:17:32;;;;;;;7.30;2.10;;;37.10;34.70;;;;;;5057722;28;20196;-82
2022/06/19 11:20:20;;;;;;;4.45;2.22;;;37.20;34.10;;;;;;5040349;28;20217;-82
2022/06/19 11:22:49;;;;;;;5.68;2.28;;;37.20;34.30;;;;;;5076690;28;20699;-82
2022/06/19 11:25:39;;;;;;;4.00;2.35;;;37.30;34.50;;;;;;5063597;28;20203;-82
2022/06/19 11:28:12;;;;;;;3.77;2.27;;;37.20;33.80;;;;;;5055088;28;20301;-82
2022/06/19 11:31:06;;;;;;;4.75;2.47;;;37.20;33.80;;;;;;5065243;28;20634;-82
2022/06/19 11:33:39;;;;;;;4.50;2.20;;;37.10;33.50;;;;;;5062261;28;20588;-82
2022/06/19 11:36:22;;;;;;;3.00;1.80;;;37.00;33.80;;;;;;5077236;28;20587;-82
2022/06/19 11:38:50;;;;;;;2.67;2.47;;;37.10;34.40;;;;;;5061325;28;20305;-82
2022/06/19 11:41:31;;;;;;;3.35;2.50;;;37.10;34.30;;;;;;5058596;28;20202;-81
2022/06/19 11:44:04;;;;;;;5.28;2.25;;;37.20;34.10;;;;;;5066386;28;20252;-81
2022/06/19 11:46:41;;;;;;;3.33;1.83;;;37.10;33.90;;;;;;5034748;28;20233;-83
2022/06/19 11:49:22;;;;;;;4.30;2.15;;;37.00;34.40;;;;;;5050381;28;20573;-81
2022/06/19 11:51:50;;;;;;;5.77;2.13;;;37.10;34.70;;;;;;5052246;28;20690;-82
2022/06/19 11:54:24;;;;;;;3.27;2.37;;;37.10;34.40;;;;;;5043911;28;20676;-81
2022/06/19 11:56:53;;;;;;;2.97;2.30;;;37.20;33.70;;;;;;5056784;28;20236;-81
2022/06/19 11:59:45;;;;;;;3.92;2.58;;;37.10;34.40;;;;;;5063668;28;20268;-81
2022/06/19 12:02:26;;;;;;;4.78;2.78;;;37.10;34.80;;;;;;5059775;28;20233;-81
2022/06/19 12:04:57;;;;;;;4.00;2.38;;;37.20;35.00;;;;;;5059683;28;20198;-81
2022/06/19 12:07:29;;;;;;;3.65;2.20;;;37.20;34.20;;;;;;5071507;28;20213;-81
2022/06/19 12:10:18;;;;;;;2.67;2.33;;;37.20;35.00;;;;;;5053183;28;20241;-82
2022/06/19 12:12:57;;;;;;;5.07;2.13;;;37.10;34.60;;;;;;5038539;28;20209;-81
2022/06/19 12:15:26;;;;;;;3.15;2.63;;;37.10;35.50;;;;;;5074648;28;20252;-84
2022/06/19 12:18:16;;;;;;;2.28;2.08;;;37.10;35.20;;;;;;5075720;28;20591;-82
2022/06/19 12:21:16;;;;;;;3.13;2.17;;;37.20;34.70;;;;;;5075095;28;20236;-82
2022/06/19 12:24:10;;;;;;;2.65;2.40;;;37.20;34.60;;;;;;5033442;28;20631;-83
2022/06/19 12:26:44;;;;;;;4.50;2.58;;;37.10;33.90;;;;;;5072150;28;20266;-82
2022/06/19 12:29:41;;;;;;;4.50;2.78;;;37.00;35.30;;;;;;5072978;28;20617;-82
2022/06/19 12:32:26;;;;;;;4.63;2.60;;;36.90;35.30;;;;;;5080878;28;20650;-81
2022/06/19 12:34:57;;;;;;;9.07;3.03;;;36.80;34.30;;;;;;5058781;28;20199;-81
2022/06/19 12:37:28;;;;;;;5.00;2.78;;;36.70;34.80;;;;;;5063816;28;20201;-82
2022/06/19 12:39:56;;;;;;;4.82;2.85;;;36.70;35.20;;;;;;5058939;28;20221;-82
2022/06/19 12:42:32;;;;;;;5.78;2.97;;;36.70;35.20;;;;;;5073293;28;20495;-82
2022/06/19 12:45:28;;;;;;;6.47;2.70;;;36.70;35.20;;;;;;5077881;28;20260;-83
2022/06/19 12:48:04;;;;;;;2.60;2.40;;;36.70;35.30;;;;;;5043137;28;20202;-86
2022/06/19 12:50:52;;;;;;;3.17;2.90;;;36.70;34.80;;;;;;5057773;28;20224;-82
2022/06/19 12:53:43;;;;;;;5.75;2.55;;;36.70;34.60;;;;;;5068698;28;20277;-82
2022/06/19 12:56:33;;;;;;;6.50;2.63;;;36.70;35.00;;;;;;5066228;28;20681;-82
2022/06/19 12:59:34;;;;;;;5.70;2.70;;;36.70;35.20;;;;;;5066497;28;20217;-83
2022/06/19 13:02:16;;;;;;;2.97;2.50;;;36.70;35.10;;;;;;5069125;28;20208;-82
2022/06/19 13:04:57;;;;;;;2.80;2.25;;;36.70;35.40;;;;;;5056926;28;20202;-83
2022/06/19 13:07:47;;;;;;;3.47;2.53;;;36.70;35.30;;;;;;5043065;28;20297;-82
2022/06/19 13:10:39;;;;;;;9.83;2.60;;;36.60;35.50;;;;;;5076969;28;20209;-84
2022/06/19 13:13:33;;;;;;;5.57;2.60;;;36.60;35.60;;;;;;5063813;28;20209;-83
2022/06/19 13:16:35;;;;;;;5.03;2.60;;;36.60;35.40;;;;;;5062067;28;20224;-83
2022/06/19 13:19:15;;;;;;;4.37;2.33;;;36.60;34.50;;;;;;5040579;28;20237;-83
2022/06/19 13:22:04;;;;;;;3.27;2.77;;;36.60;34.80;;;;;;5062468;28;20202;-82
2022/06/19 13:25:00;;;;;;;4.73;2.73;;;36.60;35.10;;;;;;5077361;28;20216;-83
2022/06/19 13:27:39;;;;;;;3.43;2.70;;;36.60;35.50;;;;;;5077680;28;20280;-83
2022/06/19 13:30:27;;;;;;;2.97;2.43;;;36.60;35.50;;;;;;5064724;28;20902;-84
2022/06/19 13:33:03;;;;;;;4.53;2.43;;;36.60;35.40;;;;;;5038701;28;20273;-83
2022/06/19 13:35:50;;;;;;;8.70;2.77;;;36.50;35.50;;;;;;5075294;28;20193;-83
2022/06/19 13:38:27;;;;;;;6.83;3.03;;;36.50;35.40;;;;;;5061555;28;20289;-83
2022/06/19 13:41:36;;;;;;;4.30;2.70;;;36.50;35.60;;;;;;5070712;28;20224;-82
2022/06/19 13:44:37;;;;;;;8.00;2.60;;;36.50;35.60;;;;;;5072086;28;20306;-82
2022/06/19 13:47:12;;;;;;;5.40;2.83;;;36.40;34.90;;;;;;5078558;28;20617;-82